الصفحة الرئيسية
METAR-TAF:

METAR-TAF

مطار :

Grise Fiord, نونافوت, كندا

دائرة عرض: 76-25N, خط طول: 082-54W, ارتفاع: 45 متر

مراقبة الطقس الحالي

تاريخ ووقت الإصدار 1ساعة و 0 دقيقة قبل الساعة 16:00UTC
ريح 3 عقدة من الغرب/الجنوب الغربي
درجة الحرارة 0°درجة مئوية
الرطوبة 86%
ضغط 1019 hPa
الرؤية: 24.1 كم
غيوم قليلة على ارتفاع 1100 قدم
غيوم قليلة على ارتفاع 2000 قدم
غيوم قليلة على ارتفاع 6600 قدم

METAR: CWGZ 151600Z 24003KT 15SM FEW011 FEW020 FEW066 00/M02 A3009 RMK ST1SC1AS1 ST TR SC TR AS TR LAST STFD OBS/NXT OBS 171200Z SLP195

زمن: 13:00 (17:00 UTC)


TAF: مفقودة

أرصاد الطقس والتوقعات من أكثر من 4000 مطار (تقارير الطقس للمطار METAR والتنبؤ بالطقس بالمطارTAF).

المحطات المتاحة هي النقط الصفراء والحمراء على الخريطة.

حرك المؤشر فوق النقطة لمعرفة اسم المحطة.

ثم انقر لمعرفة أرصاد وتوقعات الطقس.

لتغيير الخارطة: اضغط على الأزرار الخضراء مع رمز الصليب الأسود للتكبير. على الزر الأخضر مع شرطة للتصغير، أو على الأسهم الخضراء للخرائط المجاورة.


METAR-TAF: